createdAt,value
2023-05-02T00:01:02.502Z,35.33
2023-05-02T00:03:30.805Z,40.83
2023-05-02T00:05:59.155Z,35.35
2023-05-02T00:08:28.039Z,36.70
2023-05-02T00:10:56.212Z,36.75
2023-05-02T00:13:26.185Z,37.28
2023-05-02T00:15:54.596Z,41.28
2023-05-02T00:18:24.179Z,35.63
2023-05-02T00:20:52.420Z,39.63
2023-05-02T00:23:20.832Z,35.78
2023-05-02T00:25:49.030Z,38.55
2023-05-02T00:28:17.773Z,41.28
2023-05-02T00:30:48.133Z,42.22
2023-05-02T00:33:16.537Z,37.30
2023-05-02T00:35:44.823Z,38.40
2023-05-02T00:38:13.501Z,31.88
2023-05-02T00:40:46.407Z,33.33
2023-05-02T00:43:15.163Z,34.20
2023-05-02T00:45:46.302Z,37.90
2023-05-02T00:48:18.164Z,38.83
2023-05-02T00:50:46.440Z,41.65
2023-05-02T00:53:14.600Z,45.13
2023-05-02T00:55:43.236Z,43.47
2023-05-02T00:58:14.471Z,43.30
2023-05-02T01:00:56.881Z,42.90
2023-05-02T01:03:38.261Z,39.75
2023-05-02T01:06:16.869Z,40.65
2023-05-02T01:08:52.879Z,41.20
2023-05-02T01:11:33.609Z,44.25
2023-05-02T01:14:06.620Z,41.15
2023-05-02T01:16:38.561Z,38.25
2023-05-02T01:19:14.805Z,41.95
2023-05-02T01:21:43.918Z,41.38
2023-05-02T01:24:17.459Z,38.00
2023-05-02T01:26:53.841Z,44.70
2023-05-02T01:29:24.607Z,42.17
2023-05-02T01:31:53.684Z,43.17
2023-05-02T01:34:23.432Z,38.80
2023-05-02T01:36:53.316Z,41.75
2023-05-02T01:39:23.935Z,38.10
2023-05-02T01:41:54.586Z,37.55
2023-05-02T01:44:25.494Z,47.83
2023-05-02T01:46:56.491Z,44.67
2023-05-02T01:49:26.909Z,40.88
2023-05-02T01:51:55.199Z,46.00
2023-05-02T01:54:25.982Z,41.92
2023-05-02T01:56:54.397Z,50.70
2023-05-02T01:59:26.652Z,47.08
2023-05-02T02:01:56.417Z,48.28
2023-05-02T02:04:27.016Z,46.25
2023-05-02T02:07:00.008Z,43.50
2023-05-02T02:09:28.398Z,43.33
2023-05-02T02:12:04.015Z,42.67
2023-05-02T02:14:37.935Z,45.70
2023-05-02T02:17:16.470Z,50.95
2023-05-02T02:19:46.983Z,42.70
2023-05-02T02:22:16.620Z,50.40
2023-05-02T02:24:45.809Z,47.65
2023-05-02T02:27:14.368Z,54.00
2023-05-02T02:29:44.588Z,43.90
2023-05-02T02:32:12.942Z,51.72
2023-05-02T02:34:41.203Z,50.30
2023-05-02T02:37:19.361Z,50.03
2023-05-02T02:39:57.074Z,49.22
2023-05-02T02:42:35.533Z,52.20
2023-05-02T02:45:20.113Z,45.40
2023-05-02T02:47:53.084Z,48.08
2023-05-02T02:50:28.460Z,47.65
2023-05-02T02:53:00.490Z,49.72
2023-05-02T02:55:39.748Z,47.90
2023-05-02T02:58:20.262Z,49.42
2023-05-02T03:00:50.956Z,49.85
2023-05-02T03:03:21.922Z,51.70
2023-05-02T03:05:51.062Z,46.65
2023-05-02T03:08:19.282Z,50.05
2023-05-02T03:10:47.985Z,51.67
2023-05-02T03:13:16.152Z,54.28
2023-05-02T03:16:35.340Z,48.35
2023-05-02T03:19:04.143Z,47.85
2023-05-02T03:21:32.799Z,52.00
2023-05-02T03:24:01.745Z,53.72
2023-05-02T03:26:30.211Z,50.47
2023-05-02T03:28:58.775Z,52.42
2023-05-02T03:31:28.618Z,56.00
2023-05-02T03:33:57.198Z,60.30
2023-05-02T03:36:25.304Z,58.50
2023-05-02T03:38:53.810Z,57.13
2023-05-02T03:41:22.275Z,50.22
2023-05-02T03:43:50.598Z,52.40
2023-05-02T03:46:19.087Z,50.90
2023-05-02T03:48:48.918Z,52.25
2023-05-02T03:51:17.391Z,55.78
2023-05-02T03:53:45.901Z,55.25
2023-05-02T03:56:20.240Z,54.70
2023-05-02T03:58:49.565Z,57.15
2023-05-02T04:01:18.524Z,51.13
2023-05-02T04:03:48.219Z,57.97
2023-05-02T04:06:16.800Z,56.50
2023-05-02T04:08:45.306Z,55.35
2023-05-02T04:11:13.463Z,55.42
2023-05-02T04:13:41.808Z,56.67
2023-05-02T04:16:10.694Z,59.97
2023-05-02T04:18:38.833Z,60.75
2023-05-02T04:21:09.665Z,61.67
2023-05-02T04:23:38.124Z,66.25
2023-05-02T04:26:06.760Z,64.45
2023-05-02T04:28:36.573Z,70.18
2023-05-02T04:31:05.320Z,70.25
2023-05-02T04:33:33.578Z,74.75
2023-05-02T04:36:02.133Z,79.43
2023-05-02T04:38:32.214Z,78.40
2023-05-02T04:41:00.420Z,80.43
2023-05-02T04:43:37.476Z,83.55
2023-05-02T04:46:05.840Z,83.30
2023-05-02T04:48:33.997Z,80.50
2023-05-02T04:51:02.332Z,81.03
2023-05-02T04:53:31.907Z,78.07
2023-05-02T04:56:00.225Z,75.93
2023-05-02T04:58:28.767Z,77.38
2023-05-02T05:00:56.976Z,80.55
2023-05-02T05:03:25.261Z,76.68
2023-05-02T05:05:54.091Z,75.65
2023-05-02T05:08:22.249Z,72.32
2023-05-02T05:10:52.062Z,75.55
2023-05-02T05:13:20.372Z,76.18
2023-05-02T05:15:49.233Z,74.22
2023-05-02T05:18:17.460Z,77.22
2023-05-02T05:20:45.930Z,78.22
2023-05-02T05:23:14.123Z,71.90
2023-05-02T05:25:44.265Z,76.65
2023-05-02T05:28:15.822Z,73.20
2023-05-02T05:30:44.012Z,68.82
2023-05-02T05:33:12.294Z,68.32
2023-05-02T05:35:40.714Z,68.57
2023-05-02T05:38:08.905Z,68.95
2023-05-02T05:40:37.045Z,63.58
2023-05-02T05:43:05.760Z,55.70
2023-05-02T05:45:35.410Z,54.60
2023-05-02T05:48:03.599Z,50.63
2023-05-02T05:50:32.337Z,51.67
2023-05-02T05:53:00.804Z,40.72
2023-05-02T05:55:29.350Z,30.52
2023-05-02T05:57:58.256Z,26.65
2023-05-02T06:00:26.499Z,23.58
2023-05-02T06:02:56.063Z,24.13
2023-05-02T06:05:24.759Z,27.33
2023-05-02T06:07:53.038Z,23.35
2023-05-02T06:10:21.211Z,26.10
2023-05-02T06:12:49.587Z,19.17
2023-05-02T06:15:17.930Z,22.98
2023-05-02T06:17:46.484Z,20.75
2023-05-02T06:20:16.718Z,23.13
2023-05-02T06:22:47.161Z,22.13
2023-05-02T06:25:15.365Z,19.08
2023-05-02T06:27:43.679Z,19.08
2023-05-02T06:30:12.515Z,23.33
2023-05-02T06:32:42.472Z,17.73
2023-05-02T06:35:11.452Z,14.55
2023-05-02T06:37:41.096Z,12.40
2023-05-02T06:40:10.483Z,13.70
2023-05-02T06:42:38.808Z,10.60
2023-05-02T06:45:07.933Z,10.85
2023-05-02T06:47:36.093Z,15.93
2023-05-02T06:50:04.566Z,13.02
2023-05-02T06:52:32.821Z,10.68
2023-05-02T06:55:02.353Z,12.88
2023-05-02T06:57:30.845Z,9.73
2023-05-02T06:59:59.216Z,6.97
2023-05-02T07:02:27.549Z,13.00
2023-05-02T07:04:55.815Z,11.77
2023-05-02T07:07:24.214Z,11.82
2023-05-02T07:09:52.466Z,9.95
2023-05-02T07:12:22.295Z,11.02
2023-05-02T07:14:50.545Z,10.80
2023-05-02T07:17:18.852Z,11.77
2023-05-02T07:19:47.170Z,12.40
2023-05-02T07:22:16.313Z,12.68
2023-05-02T07:24:44.720Z,15.38
2023-05-02T07:27:14.359Z,16.75
2023-05-02T07:29:44.232Z,14.27
2023-05-02T07:32:12.469Z,15.88
2023-05-02T07:34:41.148Z,12.43
2023-05-02T07:37:09.884Z,14.95
2023-05-02T07:39:38.036Z,16.80
2023-05-02T07:42:06.928Z,13.90
2023-05-02T07:44:36.156Z,17.35
2023-05-02T07:47:05.728Z,13.10
2023-05-02T07:49:34.090Z,12.48
2023-05-02T07:52:02.545Z,11.70
2023-05-02T07:54:30.708Z,14.15
2023-05-02T07:57:02.407Z,12.38
2023-05-02T07:59:32.199Z,14.90
2023-05-02T08:02:00.445Z,11.70
2023-05-02T08:04:30.528Z,12.07
2023-05-02T08:06:58.711Z,13.32
2023-05-02T08:09:27.212Z,11.98
2023-05-02T08:11:55.623Z,13.27
2023-05-02T08:14:24.084Z,10.45
2023-05-02T08:16:52.307Z,9.40
2023-05-02T08:19:20.660Z,9.48
2023-05-02T08:21:50.572Z,11.75
2023-05-02T08:24:18.783Z,9.60
2023-05-02T08:26:47.322Z,8.95
2023-05-02T08:29:15.805Z,9.98
2023-05-02T08:31:44.381Z,10.30
2023-05-02T08:34:12.783Z,8.27
2023-05-02T08:36:41.153Z,9.50
2023-05-02T08:39:11.455Z,9.00
2023-05-02T08:41:40.453Z,8.95
2023-05-02T08:44:09.018Z,9.27
2023-05-02T08:46:37.765Z,9.18
2023-05-02T08:49:08.627Z,8.50
2023-05-02T08:51:39.429Z,8.40
2023-05-02T08:54:11.597Z,8.10
2023-05-02T08:56:40.087Z,8.90
2023-05-02T08:59:08.896Z,16.75
2023-05-02T09:01:38.684Z,31.17
2023-05-02T09:04:07.134Z,27.20
2023-05-02T09:06:36.266Z,27.85
2023-05-02T09:09:04.726Z,22.13
2023-05-02T09:11:35.607Z,10.55
2023-05-02T09:14:15.172Z,8.70
2023-05-02T09:16:43.649Z,9.73
2023-05-02T09:19:12.233Z,5.97
2023-05-02T09:21:42.092Z,11.15
2023-05-02T09:24:18.330Z,10.02
2023-05-02T09:26:59.205Z,11.63
2023-05-02T09:29:30.760Z,9.40
2023-05-02T09:31:58.974Z,8.48
2023-05-02T09:34:27.281Z,9.90
2023-05-02T09:36:55.566Z,8.35
2023-05-02T09:39:26.039Z,7.07
2023-05-02T09:41:56.655Z,9.93
2023-05-02T09:44:27.110Z,7.05
2023-05-02T09:46:57.696Z,10.13
2023-05-02T09:49:42.119Z,8.07
2023-05-02T09:52:14.086Z,8.57
2023-05-02T09:54:43.131Z,6.15
2023-05-02T09:57:12.736Z,7.03
2023-05-02T09:59:41.718Z,7.40
2023-05-02T10:02:12.170Z,7.60
2023-05-02T10:04:41.945Z,8.43
2023-05-02T10:07:11.902Z,8.43
2023-05-02T10:09:45.566Z,8.02
2023-05-02T10:14:51.973Z,7.15
2023-05-02T10:17:26.869Z,6.95
2023-05-02T10:19:58.401Z,6.60
2023-05-02T10:22:27.842Z,7.50
2023-05-02T10:24:59.204Z,8.90
2023-05-02T10:27:30.771Z,7.60
2023-05-02T10:30:00.843Z,8.50
2023-05-02T10:32:30.530Z,8.35
2023-05-02T10:35:03.938Z,7.28
2023-05-02T10:37:34.035Z,8.45
2023-05-02T10:40:02.595Z,10.73
2023-05-02T10:42:32.957Z,11.02
2023-05-02T10:45:01.854Z,10.00
2023-05-02T10:47:30.454Z,9.48
2023-05-02T10:50:02.577Z,10.88
2023-05-02T10:52:33.162Z,11.65
2023-05-02T10:55:19.087Z,10.13
2023-05-02T10:58:25.435Z,7.95
2023-05-02T11:00:53.749Z,8.25
2023-05-02T11:03:57.909Z,8.93
2023-05-02T11:06:27.631Z,8.73
2023-05-02T11:09:34.717Z,9.63
2023-05-02T11:12:04.907Z,7.45
2023-05-02T11:14:55.244Z,10.32
2023-05-02T11:17:23.637Z,7.93
2023-05-02T11:20:21.577Z,8.07
2023-05-02T11:22:50.806Z,8.13
2023-05-02T11:25:38.732Z,9.45
2023-05-02T11:28:10.514Z,9.07
2023-05-02T11:30:44.993Z,10.48
2023-05-02T11:33:17.431Z,8.65
2023-05-02T11:35:47.452Z,10.17
2023-05-02T11:38:17.653Z,9.15
2023-05-02T11:40:56.805Z,8.57
2023-05-02T11:43:26.679Z,10.20
2023-05-02T11:46:00.296Z,9.20
2023-05-02T11:48:29.320Z,8.27
2023-05-02T11:51:02.504Z,10.23
2023-05-02T11:53:33.323Z,6.88
2023-05-02T11:56:03.017Z,10.68
2023-05-02T11:58:33.876Z,6.80
2023-05-02T12:01:14.353Z,9.60
2023-05-02T12:03:43.317Z,9.27
2023-05-02T12:06:14.125Z,8.80
2023-05-02T12:08:43.897Z,8.15
2023-05-02T12:11:15.112Z,10.65
2023-05-02T12:13:47.890Z,10.15
2023-05-02T12:16:18.471Z,9.32
2023-05-02T12:18:48.062Z,9.82
2023-05-02T12:21:19.344Z,8.43
2023-05-02T12:23:48.028Z,8.63
2023-05-02T12:26:20.465Z,11.82
2023-05-02T12:28:54.701Z,12.70
2023-05-02T12:31:25.160Z,10.23
2023-05-02T12:33:57.600Z,7.13
2023-05-02T12:36:26.955Z,9.13
2023-05-02T12:38:58.502Z,10.68
2023-05-02T12:41:33.939Z,9.75
2023-05-02T12:44:02.583Z,10.82
2023-05-02T12:46:32.963Z,11.18
2023-05-02T12:49:06.018Z,10.55
2023-05-02T12:51:34.695Z,10.85
2023-05-02T12:54:03.351Z,12.18
2023-05-02T12:56:33.536Z,12.43
2023-05-02T12:59:05.176Z,12.43
2023-05-02T13:01:36.158Z,10.00
2023-05-02T13:04:05.759Z,10.93
2023-05-02T13:06:37.974Z,7.82
2023-05-02T13:09:06.593Z,12.25
2023-05-02T13:11:34.912Z,7.75
2023-05-02T13:14:05.432Z,10.73
2023-05-02T13:16:36.824Z,12.90
2023-05-02T13:19:05.937Z,10.75
2023-05-02T13:21:34.260Z,11.80
2023-05-02T13:24:04.259Z,11.30
2023-05-02T13:26:32.960Z,10.07
2023-05-02T13:29:01.246Z,10.23
2023-05-02T13:31:29.622Z,10.40
2023-05-02T13:33:59.280Z,10.73
2023-05-02T13:36:27.602Z,12.13
2023-05-02T13:38:55.985Z,12.30
2023-05-02T13:41:25.241Z,9.60
2023-05-02T13:43:54.021Z,9.93
2023-05-02T13:46:22.172Z,10.52
2023-05-02T13:48:50.682Z,12.88
2023-05-02T13:51:20.576Z,9.55
2023-05-02T13:53:48.790Z,10.60
2023-05-02T13:56:17.134Z,14.90
2023-05-02T13:58:45.680Z,12.77
2023-05-02T14:01:13.885Z,11.05
2023-05-02T14:03:42.674Z,13.85
2023-05-02T14:06:11.194Z,14.35
2023-05-02T14:08:40.942Z,12.25
2023-05-02T14:11:09.351Z,10.82
2023-05-02T14:13:38.111Z,9.30
2023-05-02T14:16:07.571Z,12.38
2023-05-02T14:18:36.275Z,10.00
2023-05-02T14:21:04.883Z,11.40
2023-05-02T14:23:33.024Z,12.82
2023-05-02T14:26:02.711Z,14.10
2023-05-02T14:28:31.394Z,12.85
2023-05-02T14:30:59.640Z,11.20
2023-05-02T14:33:28.006Z,10.20
2023-05-02T14:35:56.752Z,9.75
2023-05-02T14:38:24.924Z,11.00
2023-05-02T14:40:53.115Z,10.65
2023-05-02T14:43:23.194Z,12.77
2023-05-02T14:45:51.387Z,9.98
2023-05-02T14:48:19.625Z,11.05
2023-05-02T14:50:47.959Z,12.40
2023-05-02T14:53:16.291Z,11.55
2023-05-02T14:55:44.471Z,12.25
2023-05-02T14:58:12.985Z,11.07
2023-05-02T15:00:43.179Z,11.13
2023-05-02T15:03:11.454Z,9.23
2023-05-02T15:05:40.274Z,11.70
2023-05-02T15:08:08.654Z,9.38
2023-05-02T15:10:40.060Z,11.85
2023-05-02T15:13:09.009Z,10.30
2023-05-02T15:15:37.639Z,10.15
2023-05-02T15:18:07.669Z,9.98
2023-05-02T15:20:36.959Z,11.45
2023-05-02T15:23:05.148Z,12.02
2023-05-02T15:25:33.597Z,11.68
2023-05-02T15:28:02.714Z,7.65
2023-05-02T15:30:30.924Z,9.82
2023-05-02T15:32:59.173Z,10.50
2023-05-02T15:35:29.301Z,9.98
2023-05-02T15:37:57.469Z,9.52
2023-05-02T15:40:28.505Z,10.10
2023-05-02T15:42:56.857Z,10.02
2023-05-02T15:45:25.062Z,12.10
2023-05-02T15:47:53.655Z,13.23
2023-05-02T15:50:21.980Z,9.93
2023-05-02T15:52:51.567Z,10.60
2023-05-02T15:55:20.062Z,12.02
2023-05-02T15:57:51.951Z,13.02
2023-05-02T16:00:20.593Z,12.60
2023-05-02T16:02:49.002Z,15.63
2023-05-02T16:05:17.386Z,13.43
2023-05-02T16:07:45.535Z,12.68
2023-05-02T16:10:15.210Z,10.82
2023-05-02T16:12:43.793Z,10.82
2023-05-02T16:15:12.199Z,11.38
2023-05-02T16:17:42.988Z,9.75
2023-05-02T16:20:13.050Z,9.98
2023-05-02T16:22:46.071Z,11.27
2023-05-02T16:25:16.890Z,8.95
2023-05-02T16:27:45.011Z,12.82
2023-05-02T16:30:14.012Z,13.07
2023-05-02T16:32:42.260Z,11.32
2023-05-02T16:35:13.094Z,11.43
2023-05-02T16:37:42.553Z,11.32
2023-05-02T16:40:11.762Z,8.32
2023-05-02T16:42:41.550Z,9.90
2023-05-02T16:45:10.489Z,9.95
2023-05-02T16:47:38.967Z,10.05
2023-05-02T16:50:08.422Z,12.80
2023-05-02T16:52:38.172Z,12.15
2023-05-02T16:55:07.483Z,9.30
2023-05-02T16:57:35.738Z,9.40
2023-05-02T17:00:08.449Z,10.40
2023-05-02T17:02:36.960Z,12.10
2023-05-02T17:05:05.613Z,9.77
2023-05-02T17:07:33.902Z,11.95
2023-05-02T17:10:02.435Z,9.18
2023-05-02T17:12:30.754Z,8.98
2023-05-02T17:15:01.480Z,13.30
2023-05-02T17:17:31.833Z,10.63
2023-05-02T17:20:00.395Z,13.13
2023-05-02T17:22:29.251Z,13.32
2023-05-02T17:24:57.482Z,11.80
2023-05-02T17:27:25.822Z,12.98
2023-05-02T17:29:54.114Z,12.43
2023-05-02T17:32:22.698Z,10.65
2023-05-02T17:34:52.433Z,14.88
2023-05-02T17:37:20.915Z,14.23
2023-05-02T17:39:49.353Z,12.15
2023-05-02T17:42:17.556Z,13.07
2023-05-02T17:44:47.787Z,14.82
2023-05-02T17:47:18.321Z,12.82
2023-05-02T17:49:48.874Z,12.35
2023-05-02T17:52:18.530Z,12.60
2023-05-02T17:54:46.742Z,11.27
2023-05-02T17:57:16.184Z,15.00
2023-05-02T17:59:44.718Z,15.82
2023-05-02T18:02:12.965Z,13.15
2023-05-02T18:04:43.433Z,12.50
2023-05-02T18:07:13.675Z,13.00
2023-05-02T18:09:43.522Z,13.32
2023-05-02T18:12:11.818Z,14.30
2023-05-02T18:14:39.983Z,13.55
2023-05-02T18:17:10.182Z,13.55
2023-05-02T18:19:38.763Z,16.13
2023-05-02T18:22:07.295Z,14.82
2023-05-02T18:24:39.324Z,16.05
2023-05-02T18:27:09.429Z,15.70
2023-05-02T18:29:37.885Z,13.50
2023-05-02T18:32:06.750Z,12.43
2023-05-02T18:34:38.459Z,15.68
2023-05-02T18:37:07.848Z,14.65
2023-05-02T18:39:36.353Z,14.75
2023-05-02T18:42:05.687Z,11.27
2023-05-02T18:44:35.618Z,13.70
2023-05-02T18:47:04.199Z,12.80
2023-05-02T18:49:32.427Z,10.77
2023-05-02T18:52:01.437Z,16.80
2023-05-02T18:54:29.700Z,15.27
2023-05-02T18:56:58.081Z,12.98
2023-05-02T18:59:27.946Z,12.85
2023-05-02T19:01:58.229Z,15.35
2023-05-02T19:04:26.628Z,11.73
2023-05-02T19:06:55.315Z,12.50
2023-05-02T19:09:24.089Z,13.75
2023-05-02T19:11:54.093Z,13.07
2023-05-02T19:14:22.515Z,12.82
2023-05-02T19:16:51.003Z,11.40
2023-05-02T19:19:20.975Z,12.43
2023-05-02T19:21:50.949Z,10.00
2023-05-02T19:24:19.674Z,13.27
2023-05-02T19:26:47.855Z,12.18
2023-05-02T19:29:16.285Z,12.45
2023-05-02T19:31:44.976Z,13.45
2023-05-02T19:34:13.227Z,11.57
2023-05-02T19:36:42.970Z,11.52
2023-05-02T19:39:13.326Z,11.05
2023-05-02T19:41:42.537Z,10.95
2023-05-02T19:44:11.114Z,11.30
2023-05-02T19:46:39.540Z,12.18
2023-05-02T19:49:08.168Z,10.18
2023-05-02T19:51:36.600Z,12.00
2023-05-02T19:54:06.935Z,9.30
2023-05-02T19:56:35.124Z,11.45
2023-05-02T19:59:03.382Z,12.20
2023-05-02T20:01:32.621Z,14.77
2023-05-02T20:04:01.299Z,13.27
2023-05-02T20:06:31.508Z,12.73
2023-05-02T20:09:00.426Z,13.18
2023-05-02T20:11:31.016Z,14.20
2023-05-02T20:13:59.178Z,13.82
2023-05-02T20:16:28.719Z,13.10
2023-05-02T20:18:57.773Z,13.18
2023-05-02T20:21:26.787Z,11.85
2023-05-02T20:23:54.921Z,12.82
2023-05-02T20:26:23.772Z,12.35
2023-05-02T20:28:53.330Z,12.15
2023-05-02T20:31:21.583Z,12.82
2023-05-02T20:33:50.044Z,12.80
2023-05-02T20:36:18.316Z,14.10
2023-05-02T20:38:48.545Z,13.32
2023-05-02T20:41:17.795Z,16.42
2023-05-02T20:43:47.051Z,15.10
2023-05-02T20:46:17.282Z,16.60
2023-05-02T20:48:45.621Z,15.30
2023-05-02T20:51:13.823Z,12.82
2023-05-02T20:53:42.499Z,16.00
2023-05-02T20:56:10.993Z,16.15
2023-05-02T20:58:39.175Z,16.42
2023-05-02T21:01:07.598Z,12.65
2023-05-02T21:03:39.832Z,16.10
2023-05-02T21:06:08.277Z,15.85
2023-05-02T21:08:36.945Z,11.20
2023-05-02T21:11:13.745Z,12.32
2023-05-02T21:13:42.064Z,15.27
2023-05-02T21:16:17.662Z,14.52
2023-05-02T21:18:47.390Z,11.45
2023-05-02T21:21:15.953Z,13.52
2023-05-02T21:23:44.540Z,12.52
2023-05-02T21:26:12.867Z,15.30
2023-05-02T21:28:41.062Z,14.40
2023-05-02T21:31:09.595Z,15.93
2023-05-02T21:33:38.053Z,16.33
2023-05-02T21:36:08.256Z,18.42
2023-05-02T21:38:36.727Z,13.38
2023-05-02T21:41:06.137Z,16.88
2023-05-02T21:43:38.467Z,13.85
2023-05-02T21:46:07.097Z,12.68
2023-05-02T21:48:35.697Z,16.08
2023-05-02T21:51:09.053Z,20.73
2023-05-02T21:53:37.427Z,17.25
2023-05-02T21:56:07.129Z,16.40
2023-05-02T21:58:35.744Z,16.50
2023-05-02T22:01:04.009Z,15.77
2023-05-02T22:03:34.306Z,17.77
2023-05-02T22:06:06.913Z,14.52
2023-05-02T22:08:37.032Z,17.35
2023-05-02T22:11:09.550Z,17.42
2023-05-02T22:13:38.212Z,13.93
2023-05-02T22:16:07.578Z,14.63
2023-05-02T22:18:36.352Z,14.68
2023-05-02T22:21:04.779Z,13.50
2023-05-02T22:23:33.360Z,14.93
2023-05-02T22:26:03.204Z,16.75
2023-05-02T22:28:31.403Z,17.70
2023-05-02T22:30:59.708Z,14.88
2023-05-02T22:33:27.955Z,16.25
2023-05-02T22:35:57.074Z,15.50
2023-05-02T22:38:25.481Z,17.30
2023-05-02T22:40:53.943Z,17.33
2023-05-02T22:43:23.495Z,16.52
2023-05-02T22:45:52.327Z,21.88
2023-05-02T22:48:20.830Z,24.02
2023-05-02T22:50:49.679Z,21.10
2023-05-02T22:53:18.125Z,21.48
2023-05-02T22:55:46.907Z,18.05
2023-05-02T22:58:15.105Z,21.73
2023-05-02T23:00:45.001Z,17.48
2023-05-02T23:03:13.627Z,18.48
2023-05-02T23:05:41.904Z,17.75
2023-05-02T23:08:10.354Z,17.42
2023-05-02T23:10:38.996Z,20.52
2023-05-02T23:13:07.159Z,17.77
2023-05-02T23:15:35.631Z,16.98
2023-05-02T23:18:05.661Z,20.13
2023-05-02T23:20:34.675Z,17.20
2023-05-02T23:23:04.697Z,17.52
2023-05-02T23:25:34.554Z,19.40
2023-05-02T23:28:02.656Z,16.75
2023-05-02T23:30:31.763Z,16.27
2023-05-02T23:33:01.065Z,21.58
2023-05-02T23:35:31.783Z,17.02
2023-05-02T23:38:00.910Z,14.50
2023-05-02T23:40:29.308Z,16.58
2023-05-02T23:42:57.880Z,13.38
2023-05-02T23:45:26.094Z,16.75
2023-05-02T23:47:54.739Z,16.73
2023-05-02T23:50:23.343Z,16.63
2023-05-02T23:52:52.971Z,16.70
2023-05-02T23:55:21.330Z,17.40
2023-05-02T23:57:49.691Z,17.63
